sensor_id;sensor_type;location;lat;lon;timestamp;temperature;humidity
62589;DHT22;58504;48.770;9.148;2022-12-20T00:01:23;18.50;53.60
62589;DHT22;58504;48.770;9.148;2022-12-20T00:03:51;18.40;54.20
62589;DHT22;58504;48.770;9.148;2022-12-20T00:06:18;18.40;53.80
62589;DHT22;58504;48.770;9.148;2022-12-20T00:08:46;18.40;53.80
62589;DHT22;58504;48.770;9.148;2022-12-20T00:11:13;18.40;53.80
62589;DHT22;58504;48.770;9.148;2022-12-20T00:13:41;18.50;53.90
62589;DHT22;58504;48.770;9.148;2022-12-20T00:16:10;18.50;53.80
62589;DHT22;58504;48.770;9.148;2022-12-20T00:18:38;18.50;53.80
62589;DHT22;58504;48.770;9.148;2022-12-20T00:21:06;18.50;53.70
62589;DHT22;58504;48.770;9.148;2022-12-20T00:23:33;18.50;53.80
62589;DHT22;58504;48.770;9.148;2022-12-20T00:26:07;18.40;53.70
62589;DHT22;58504;48.770;9.148;2022-12-20T00:28:35;18.40;53.80
62589;DHT22;58504;48.770;9.148;2022-12-20T00:31:05;18.30;53.80
62589;DHT22;58504;48.770;9.148;2022-12-20T00:33:33;18.30;53.90
62589;DHT22;58504;48.770;9.148;2022-12-20T00:36:00;18.30;54.00
62589;DHT22;58504;48.770;9.148;2022-12-20T00:38:27;18.30;54.00
62589;DHT22;58504;48.770;9.148;2022-12-20T00:41:01;18.20;54.10
62589;DHT22;58504;48.770;9.148;2022-12-20T00:43:29;18.10;54.00
62589;DHT22;58504;48.770;9.148;2022-12-20T00:45:56;18.10;54.10
62589;DHT22;58504;48.770;9.148;2022-12-20T00:48:25;18.20;54.20
62589;DHT22;58504;48.770;9.148;2022-12-20T00:50:56;18.30;54.10
62589;DHT22;58504;48.770;9.148;2022-12-20T00:53:23;18.40;53.90
62589;DHT22;58504;48.770;9.148;2022-12-20T00:55:51;18.50;53.70
62589;DHT22;58504;48.770;9.148;2022-12-20T00:58:17;18.50;53.50
62589;DHT22;58504;48.770;9.148;2022-12-20T01:00:44;18.60;53.50
62589;DHT22;58504;48.770;9.148;2022-12-20T01:03:11;18.60;53.50
62589;DHT22;58504;48.770;9.148;2022-12-20T01:05:39;18.60;53.50
62589;DHT22;58504;48.770;9.148;2022-12-20T01:08:06;18.60;53.50
62589;DHT22;58504;48.770;9.148;2022-12-20T01:10:32;18.60;53.50
62589;DHT22;58504;48.770;9.148;2022-12-20T01:12:59;18.70;53.40
62589;DHT22;58504;48.770;9.148;2022-12-20T01:15:26;18.70;53.30
62589;DHT22;58504;48.770;9.148;2022-12-20T01:17:53;18.80;53.20
62589;DHT22;58504;48.770;9.148;2022-12-20T01:20:20;18.80;53.20
62589;DHT22;58504;48.770;9.148;2022-12-20T01:22:48;18.90;53.10
62589;DHT22;58504;48.770;9.148;2022-12-20T01:25:15;19.00;53.00
62589;DHT22;58504;48.770;9.148;2022-12-20T01:27:42;19.00;52.80
62589;DHT22;58504;48.770;9.148;2022-12-20T01:30:10;19.00;52.70
62589;DHT22;58504;48.770;9.148;2022-12-20T01:32:37;19.00;52.60
62589;DHT22;58504;48.770;9.148;2022-12-20T01:35:04;18.90;52.60
62589;DHT22;58504;48.770;9.148;2022-12-20T01:37:31;18.90;52.60
62589;DHT22;58504;48.770;9.148;2022-12-20T01:39:59;18.80;52.50
62589;DHT22;58504;48.770;9.148;2022-12-20T01:42:26;18.80;52.60
62589;DHT22;58504;48.770;9.148;2022-12-20T01:44:58;18.80;52.60
62589;DHT22;58504;48.770;9.148;2022-12-20T01:47:25;18.70;52.70
62589;DHT22;58504;48.770;9.148;2022-12-20T01:49:55;18.70;52.60
62589;DHT22;58504;48.770;9.148;2022-12-20T01:52:28;18.60;52.60
62589;DHT22;58504;48.770;9.148;2022-12-20T01:55:03;18.50;52.60
62589;DHT22;58504;48.770;9.148;2022-12-20T01:57:33;18.50;52.80
62589;DHT22;58504;48.770;9.148;2022-12-20T02:00:03;18.40;52.80
62589;DHT22;58504;48.770;9.148;2022-12-20T02:02:31;18.40;52.90
62589;DHT22;58504;48.770;9.148;2022-12-20T02:04:58;18.30;52.90
62589;DHT22;58504;48.770;9.148;2022-12-20T02:07:27;18.30;52.90
62589;DHT22;58504;48.770;9.148;2022-12-20T02:09:55;18.30;53.00
62589;DHT22;58504;48.770;9.148;2022-12-20T02:12:28;18.10;53.00
62589;DHT22;58504;48.770;9.148;2022-12-20T02:15:26;18.10;53.10
62589;DHT22;58504;48.770;9.148;2022-12-20T02:18:05;18.10;53.10
62589;DHT22;58504;48.770;9.148;2022-12-20T02:20:58;18.00;53.20
62589;DHT22;58504;48.770;9.148;2022-12-20T02:23:43;17.90;53.20
62589;DHT22;58504;48.770;9.148;2022-12-20T02:26:30;17.90;53.30
62589;DHT22;58504;48.770;9.148;2022-12-20T02:29:19;17.90;53.50
62589;DHT22;58504;48.770;9.148;2022-12-20T02:31:52;17.80;53.50
62589;DHT22;58504;48.770;9.148;2022-12-20T02:34:21;17.70;53.40
62589;DHT22;58504;48.770;9.148;2022-12-20T02:36:50;17.70;53.60
62589;DHT22;58504;48.770;9.148;2022-12-20T02:39:17;17.60;53.50
62589;DHT22;58504;48.770;9.148;2022-12-20T02:41:48;17.60;53.50
62589;DHT22;58504;48.770;9.148;2022-12-20T02:44:17;17.60;53.70
62589;DHT22;58504;48.770;9.148;2022-12-20T02:47:06;17.50;53.50
62589;DHT22;58504;48.770;9.148;2022-12-20T02:49:36;17.50;53.60
62589;DHT22;58504;48.770;9.148;2022-12-20T02:52:07;17.40;53.60
62589;DHT22;58504;48.770;9.148;2022-12-20T02:54:35;17.40;53.70
62589;DHT22;58504;48.770;9.148;2022-12-20T02:57:07;17.40;53.70
62589;DHT22;58504;48.770;9.148;2022-12-20T02:59:38;17.30;53.80
62589;DHT22;58504;48.770;9.148;2022-12-20T03:02:08;17.30;53.80
62589;DHT22;58504;48.770;9.148;2022-12-20T03:04:38;17.20;53.70
62589;DHT22;58504;48.770;9.148;2022-12-20T03:07:07;17.20;53.90
62589;DHT22;58504;48.770;9.148;2022-12-20T03:09:36;17.20;54.00
62589;DHT22;58504;48.770;9.148;2022-12-20T03:12:04;17.20;54.10
62589;DHT22;58504;48.770;9.148;2022-12-20T03:14:31;17.10;54.10
62589;DHT22;58504;48.770;9.148;2022-12-20T03:16:58;17.10;54.20
62589;DHT22;58504;48.770;9.148;2022-12-20T03:19:26;17.10;54.10
62589;DHT22;58504;48.770;9.148;2022-12-20T03:21:53;17.00;54.20
62589;DHT22;58504;48.770;9.148;2022-12-20T03:24:19;17.00;54.20
62589;DHT22;58504;48.770;9.148;2022-12-20T03:26:46;17.00;54.20
62589;DHT22;58504;48.770;9.148;2022-12-20T03:29:13;16.90;54.30
62589;DHT22;58504;48.770;9.148;2022-12-20T03:31:40;16.90;54.30
62589;DHT22;58504;48.770;9.148;2022-12-20T03:34:07;16.90;54.30
62589;DHT22;58504;48.770;9.148;2022-12-20T03:36:35;16.90;54.40
62589;DHT22;58504;48.770;9.148;2022-12-20T03:39:02;16.90;55.00
62589;DHT22;58504;48.770;9.148;2022-12-20T03:41:29;16.80;54.40
62589;DHT22;58504;48.770;9.148;2022-12-20T03:43:55;16.80;54.40
62589;DHT22;58504;48.770;9.148;2022-12-20T03:46:22;16.80;54.50
62589;DHT22;58504;48.770;9.148;2022-12-20T03:48:49;16.80;54.50
62589;DHT22;58504;48.770;9.148;2022-12-20T03:51:15;16.70;54.50
62589;DHT22;58504;48.770;9.148;2022-12-20T03:53:44;16.70;54.60
62589;DHT22;58504;48.770;9.148;2022-12-20T03:56:10;16.70;54.50
62589;DHT22;58504;48.770;9.148;2022-12-20T03:58:37;16.70;54.60
62589;DHT22;58504;48.770;9.148;2022-12-20T04:01:16;16.70;54.60
62589;DHT22;58504;48.770;9.148;2022-12-20T04:03:44;16.60;54.60
62589;DHT22;58504;48.770;9.148;2022-12-20T04:06:10;16.60;54.60
62589;DHT22;58504;48.770;9.148;2022-12-20T04:08:37;16.60;54.60
62589;DHT22;58504;48.770;9.148;2022-12-20T04:11:05;16.60;54.60
62589;DHT22;58504;48.770;9.148;2022-12-20T04:13:41;16.50;54.60
62589;DHT22;58504;48.770;9.148;2022-12-20T04:16:08;16.50;54.60
62589;DHT22;58504;48.770;9.148;2022-12-20T04:18:35;16.50;54.60
62589;DHT22;58504;48.770;9.148;2022-12-20T04:21:03;16.50;54.70
62589;DHT22;58504;48.770;9.148;2022-12-20T04:23:31;16.50;54.70
62589;DHT22;58504;48.770;9.148;2022-12-20T04:25:58;16.50;54.80
62589;DHT22;58504;48.770;9.148;2022-12-20T04:28:27;16.40;54.70
62589;DHT22;58504;48.770;9.148;2022-12-20T04:30:54;16.40;54.50
62589;DHT22;58504;48.770;9.148;2022-12-20T04:33:21;16.50;54.30
62589;DHT22;58504;48.770;9.148;2022-12-20T04:35:47;16.70;54.30
62589;DHT22;58504;48.770;9.148;2022-12-20T04:38:14;16.90;53.90
62589;DHT22;58504;48.770;9.148;2022-12-20T04:40:41;17.20;53.40
62589;DHT22;58504;48.770;9.148;2022-12-20T04:43:08;17.50;52.80
62589;DHT22;58504;48.770;9.148;2022-12-20T04:45:36;17.80;52.20
62589;DHT22;58504;48.770;9.148;2022-12-20T04:48:03;18.10;51.70
62589;DHT22;58504;48.770;9.148;2022-12-20T04:50:30;18.40;51.30
62589;DHT22;58504;48.770;9.148;2022-12-20T04:52:57;18.50;50.90
62589;DHT22;58504;48.770;9.148;2022-12-20T04:55:41;18.70;50.70
62589;DHT22;58504;48.770;9.148;2022-12-20T04:58:08;18.80;50.50
62589;DHT22;58504;48.770;9.148;2022-12-20T05:00:36;18.90;50.30
62589;DHT22;58504;48.770;9.148;2022-12-20T05:03:03;19.00;50.20
62589;DHT22;58504;48.770;9.148;2022-12-20T05:05:30;19.20;50.10
62589;DHT22;58504;48.770;9.148;2022-12-20T05:07:57;19.20;49.70
62589;DHT22;58504;48.770;9.148;2022-12-20T05:10:24;19.30;49.70
62589;DHT22;58504;48.770;9.148;2022-12-20T05:12:51;19.50;49.70
62589;DHT22;58504;48.770;9.148;2022-12-20T05:15:18;19.60;49.60
62589;DHT22;58504;48.770;9.148;2022-12-20T05:17:46;19.60;49.30
62589;DHT22;58504;48.770;9.148;2022-12-20T05:20:13;19.70;49.20
62589;DHT22;58504;48.770;9.148;2022-12-20T05:22:39;19.80;49.20
62589;DHT22;58504;48.770;9.148;2022-12-20T05:25:24;19.90;49.10
62589;DHT22;58504;48.770;9.148;2022-12-20T05:28:08;19.90;49.00
62589;DHT22;58504;48.770;9.148;2022-12-20T05:30:35;20.00;49.00
62589;DHT22;58504;48.770;9.148;2022-12-20T05:33:03;20.00;48.80
62589;DHT22;58504;48.770;9.148;2022-12-20T05:35:30;20.10;48.80
62589;DHT22;58504;48.770;9.148;2022-12-20T05:37:56;20.10;48.70
62589;DHT22;58504;48.770;9.148;2022-12-20T05:40:23;20.10;48.60
62589;DHT22;58504;48.770;9.148;2022-12-20T05:42:50;20.20;48.60
62589;DHT22;58504;48.770;9.148;2022-12-20T05:45:16;20.20;48.50
62589;DHT22;58504;48.770;9.148;2022-12-20T05:47:44;20.20;48.40
62589;DHT22;58504;48.770;9.148;2022-12-20T05:50:12;20.30;48.60
62589;DHT22;58504;48.770;9.148;2022-12-20T05:52:39;20.30;48.60
62589;DHT22;58504;48.770;9.148;2022-12-20T05:55:06;20.30;48.50
62589;DHT22;58504;48.770;9.148;2022-12-20T05:57:33;20.30;48.40
62589;DHT22;58504;48.770;9.148;2022-12-20T06:00:00;20.30;48.40
62589;DHT22;58504;48.770;9.148;2022-12-20T06:02:27;20.30;48.40
62589;DHT22;58504;48.770;9.148;2022-12-20T06:04:54;20.30;48.50
62589;DHT22;58504;48.770;9.148;2022-12-20T06:07:23;20.30;48.40
62589;DHT22;58504;48.770;9.148;2022-12-20T06:09:50;20.20;48.40
62589;DHT22;58504;48.770;9.148;2022-12-20T06:12:17;20.20;48.40
62589;DHT22;58504;48.770;9.148;2022-12-20T06:14:43;20.20;48.40
62589;DHT22;58504;48.770;9.148;2022-12-20T06:17:10;20.20;48.50
62589;DHT22;58504;48.770;9.148;2022-12-20T06:19:37;20.10;48.60
62589;DHT22;58504;48.770;9.148;2022-12-20T06:22:05;20.10;48.40
62589;DHT22;58504;48.770;9.148;2022-12-20T06:24:34;20.10;48.40
62589;DHT22;58504;48.770;9.148;2022-12-20T06:27:01;20.10;48.50
62589;DHT22;58504;48.770;9.148;2022-12-20T06:29:29;20.10;48.60
62589;DHT22;58504;48.770;9.148;2022-12-20T06:31:55;20.10;48.60
62589;DHT22;58504;48.770;9.148;2022-12-20T06:34:22;20.10;48.70
62589;DHT22;58504;48.770;9.148;2022-12-20T06:36:49;20.00;48.70
62589;DHT22;58504;48.770;9.148;2022-12-20T06:39:16;20.00;48.60
62589;DHT22;58504;48.770;9.148;2022-12-20T06:41:44;20.00;48.60
62589;DHT22;58504;48.770;9.148;2022-12-20T06:44:11;19.90;48.50
62589;DHT22;58504;48.770;9.148;2022-12-20T06:46:37;19.90;48.60
62589;DHT22;58504;48.770;9.148;2022-12-20T06:49:04;19.90;48.80
62589;DHT22;58504;48.770;9.148;2022-12-20T06:51:31;19.90;48.80
62589;DHT22;58504;48.770;9.148;2022-12-20T06:53:57;19.90;48.90
62589;DHT22;58504;48.770;9.148;2022-12-20T06:56:24;19.90;48.90
62589;DHT22;58504;48.770;9.148;2022-12-20T06:58:52;19.90;48.90
62589;DHT22;58504;48.770;9.148;2022-12-20T07:01:19;19.90;49.00
62589;DHT22;58504;48.770;9.148;2022-12-20T07:03:46;19.90;49.10
62589;DHT22;58504;48.770;9.148;2022-12-20T07:06:12;19.80;49.30
62589;DHT22;58504;48.770;9.148;2022-12-20T07:08:39;19.90;49.60
62589;DHT22;58504;48.770;9.148;2022-12-20T07:11:07;19.90;49.70
62589;DHT22;58504;48.770;9.148;2022-12-20T07:13:34;20.00;49.90
62589;DHT22;58504;48.770;9.148;2022-12-20T07:16:03;20.00;49.90
62589;DHT22;58504;48.770;9.148;2022-12-20T07:18:30;20.00;50.00
62589;DHT22;58504;48.770;9.148;2022-12-20T07:20:59;20.00;49.90
62589;DHT22;58504;48.770;9.148;2022-12-20T07:23:26;20.00;49.90
62589;DHT22;58504;48.770;9.148;2022-12-20T07:25:53;20.10;49.90
62589;DHT22;58504;48.770;9.148;2022-12-20T07:28:20;20.00;49.80
62589;DHT22;58504;48.770;9.148;2022-12-20T07:30:48;20.00;49.90
62589;DHT22;58504;48.770;9.148;2022-12-20T07:33:16;20.00;49.90
62589;DHT22;58504;48.770;9.148;2022-12-20T07:35:43;20.00;50.20
62589;DHT22;58504;48.770;9.148;2022-12-20T07:38:11;20.00;49.60
62589;DHT22;58504;48.770;9.148;2022-12-20T07:40:39;20.00;49.80
62589;DHT22;58504;48.770;9.148;2022-12-20T07:43:07;20.00;49.80
62589;DHT22;58504;48.770;9.148;2022-12-20T07:45:34;19.90;49.70
62589;DHT22;58504;48.770;9.148;2022-12-20T07:48:02;20.00;49.90
62589;DHT22;58504;48.770;9.148;2022-12-20T07:50:32;20.00;49.90
62589;DHT22;58504;48.770;9.148;2022-12-20T07:53:02;20.00;49.90
62589;DHT22;58504;48.770;9.148;2022-12-20T07:55:31;19.90;49.80
62589;DHT22;58504;48.770;9.148;2022-12-20T07:58:03;20.00;49.90
62589;DHT22;58504;48.770;9.148;2022-12-20T08:00:30;19.90;49.90
62589;DHT22;58504;48.770;9.148;2022-12-20T08:03:01;19.90;50.10
62589;DHT22;58504;48.770;9.148;2022-12-20T08:05:32;19.90;50.20
62589;DHT22;58504;48.770;9.148;2022-12-20T08:08:00;19.90;50.30
62589;DHT22;58504;48.770;9.148;2022-12-20T08:10:28;19.90;50.30
62589;DHT22;58504;48.770;9.148;2022-12-20T08:12:56;19.80;50.20
62589;DHT22;58504;48.770;9.148;2022-12-20T08:15:24;19.90;50.20
62589;DHT22;58504;48.770;9.148;2022-12-20T08:17:51;20.00;50.40
62589;DHT22;58504;48.770;9.148;2022-12-20T08:20:18;20.00;50.20
62589;DHT22;58504;48.770;9.148;2022-12-20T08:22:46;20.00;49.90
62589;DHT22;58504;48.770;9.148;2022-12-20T08:25:13;20.10;50.10
62589;DHT22;58504;48.770;9.148;2022-12-20T08:27:40;20.10;50.10
62589;DHT22;58504;48.770;9.148;2022-12-20T08:30:08;20.10;50.00
62589;DHT22;58504;48.770;9.148;2022-12-20T08:32:36;20.20;50.00
62589;DHT22;58504;48.770;9.148;2022-12-20T08:35:04;20.20;49.80
62589;DHT22;58504;48.770;9.148;2022-12-20T08:37:31;20.30;49.80
62589;DHT22;58504;48.770;9.148;2022-12-20T08:39:59;20.30;49.90
62589;DHT22;58504;48.770;9.148;2022-12-20T08:42:25;20.30;49.70
62589;DHT22;58504;48.770;9.148;2022-12-20T08:44:52;20.30;49.70
62589;DHT22;58504;48.770;9.148;2022-12-20T08:47:19;20.30;49.70
62589;DHT22;58504;48.770;9.148;2022-12-20T08:49:46;20.20;49.70
62589;DHT22;58504;48.770;9.148;2022-12-20T08:52:12;20.20;49.50
62589;DHT22;58504;48.770;9.148;2022-12-20T08:54:39;20.20;49.70
62589;DHT22;58504;48.770;9.148;2022-12-20T08:57:08;20.20;49.80
62589;DHT22;58504;48.770;9.148;2022-12-20T08:59:34;20.10;49.60
62589;DHT22;58504;48.770;9.148;2022-12-20T09:02:01;20.20;49.70
62589;DHT22;58504;48.770;9.148;2022-12-20T09:04:28;20.20;49.50
62589;DHT22;58504;48.770;9.148;2022-12-20T09:06:55;20.30;49.40
62589;DHT22;58504;48.770;9.148;2022-12-20T09:09:21;20.30;49.60
62589;DHT22;58504;48.770;9.148;2022-12-20T09:11:48;20.30;49.40
62589;DHT22;58504;48.770;9.148;2022-12-20T09:14:17;20.30;49.20
62589;DHT22;58504;48.770;9.148;2022-12-20T09:16:44;20.30;49.50
62589;DHT22;58504;48.770;9.148;2022-12-20T09:19:12;20.20;49.50
62589;DHT22;58504;48.770;9.148;2022-12-20T09:21:39;20.20;49.70
62589;DHT22;58504;48.770;9.148;2022-12-20T09:24:07;20.20;49.50
62589;DHT22;58504;48.770;9.148;2022-12-20T09:26:34;20.10;49.60
62589;DHT22;58504;48.770;9.148;2022-12-20T09:29:01;20.00;49.80
62589;DHT22;58504;48.770;9.148;2022-12-20T09:31:30;20.00;49.90
62589;DHT22;58504;48.770;9.148;2022-12-20T09:33:58;19.90;50.30
62589;DHT22;58504;48.770;9.148;2022-12-20T09:36:27;20.00;50.20
62589;DHT22;58504;48.770;9.148;2022-12-20T09:38:54;20.00;50.10
62589;DHT22;58504;48.770;9.148;2022-12-20T09:41:28;20.10;50.30
62589;DHT22;58504;48.770;9.148;2022-12-20T09:43:58;20.10;50.10
62589;DHT22;58504;48.770;9.148;2022-12-20T09:46:26;20.20;50.20
62589;DHT22;58504;48.770;9.148;2022-12-20T09:48:56;20.20;50.20
62589;DHT22;58504;48.770;9.148;2022-12-20T09:51:33;20.20;50.20
62589;DHT22;58504;48.770;9.148;2022-12-20T09:54:10;20.20;50.20
62589;DHT22;58504;48.770;9.148;2022-12-20T09:56:42;20.20;50.20
62589;DHT22;58504;48.770;9.148;2022-12-20T09:59:11;20.20;50.00
62589;DHT22;58504;48.770;9.148;2022-12-20T10:01:43;20.20;50.20
62589;DHT22;58504;48.770;9.148;2022-12-20T10:04:19;20.20;50.20
62589;DHT22;58504;48.770;9.148;2022-12-20T10:06:58;20.30;50.10
62589;DHT22;58504;48.770;9.148;2022-12-20T10:09:51;20.40;50.10
62589;DHT22;58504;48.770;9.148;2022-12-20T10:12:27;20.50;50.20
62589;DHT22;58504;48.770;9.148;2022-12-20T10:15:12;20.50;50.20
62589;DHT22;58504;48.770;9.148;2022-12-20T10:17:49;20.60;50.10
62589;DHT22;58504;48.770;9.148;2022-12-20T10:20:29;20.70;50.20
62589;DHT22;58504;48.770;9.148;2022-12-20T10:23:00;20.70;50.20
62589;DHT22;58504;48.770;9.148;2022-12-20T10:25:30;20.70;50.20
62589;DHT22;58504;48.770;9.148;2022-12-20T10:28:00;20.80;50.30
62589;DHT22;58504;48.770;9.148;2022-12-20T10:30:28;20.80;50.30
62589;DHT22;58504;48.770;9.148;2022-12-20T10:32:57;20.80;50.20
62589;DHT22;58504;48.770;9.148;2022-12-20T10:35:27;20.90;50.40
62589;DHT22;58504;48.770;9.148;2022-12-20T10:37:58;20.90;50.40
62589;DHT22;58504;48.770;9.148;2022-12-20T10:40:27;20.90;50.30
62589;DHT22;58504;48.770;9.148;2022-12-20T10:42:54;21.00;50.30
62589;DHT22;58504;48.770;9.148;2022-12-20T10:45:33;21.10;50.10
62589;DHT22;58504;48.770;9.148;2022-12-20T10:48:02;21.20;49.80
62589;DHT22;58504;48.770;9.148;2022-12-20T10:50:31;21.30;49.70
62589;DHT22;58504;48.770;9.148;2022-12-20T10:53:19;21.40;49.60
62589;DHT22;58504;48.770;9.148;2022-12-20T10:55:47;21.50;49.70
62589;DHT22;58504;48.770;9.148;2022-12-20T10:58:16;21.50;50.20
62589;DHT22;58504;48.770;9.148;2022-12-20T11:00:43;21.60;49.60
62589;DHT22;58504;48.770;9.148;2022-12-20T11:03:15;21.60;49.40
62589;DHT22;58504;48.770;9.148;2022-12-20T11:05:54;21.60;49.30
62589;DHT22;58504;48.770;9.148;2022-12-20T11:08:22;21.70;49.30
62589;DHT22;58504;48.770;9.148;2022-12-20T11:10:54;21.70;49.30
62589;DHT22;58504;48.770;9.148;2022-12-20T11:13:36;21.80;49.40
62589;DHT22;58504;48.770;9.148;2022-12-20T11:16:03;21.80;49.30
62589;DHT22;58504;48.770;9.148;2022-12-20T11:18:39;21.80;49.00
62589;DHT22;58504;48.770;9.148;2022-12-20T11:21:17;21.80;48.80
62589;DHT22;58504;48.770;9.148;2022-12-20T11:23:50;21.80;48.00
62589;DHT22;58504;48.770;9.148;2022-12-20T11:26:29;21.80;48.20
62589;DHT22;58504;48.770;9.148;2022-12-20T11:29:09;21.80;48.50
62589;DHT22;58504;48.770;9.148;2022-12-20T11:31:48;21.80;48.60
62589;DHT22;58504;48.770;9.148;2022-12-20T11:34:26;21.80;48.80
62589;DHT22;58504;48.770;9.148;2022-12-20T11:37:14;21.80;48.80
62589;DHT22;58504;48.770;9.148;2022-12-20T11:39:54;21.80;48.80
62589;DHT22;58504;48.770;9.148;2022-12-20T11:42:28;21.80;48.80
62589;DHT22;58504;48.770;9.148;2022-12-20T11:45:06;21.90;48.90
62589;DHT22;58504;48.770;9.148;2022-12-20T11:48:02;21.90;49.00
62589;DHT22;58504;48.770;9.148;2022-12-20T11:50:41;21.90;48.90
62589;DHT22;58504;48.770;9.148;2022-12-20T11:53:16;21.90;48.90
62589;DHT22;58504;48.770;9.148;2022-12-20T11:55:45;21.90;48.80
62589;DHT22;58504;48.770;9.148;2022-12-20T11:58:17;21.90;48.90
62589;DHT22;58504;48.770;9.148;2022-12-20T12:00:51;21.90;48.90
62589;DHT22;58504;48.770;9.148;2022-12-20T12:03:26;21.90;48.90
62589;DHT22;58504;48.770;9.148;2022-12-20T12:05:56;21.90;48.90
62589;DHT22;58504;48.770;9.148;2022-12-20T12:08:30;21.90;48.90
62589;DHT22;58504;48.770;9.148;2022-12-20T12:11:05;21.90;48.70
62589;DHT22;58504;48.770;9.148;2022-12-20T12:13:37;21.90;48.70
62589;DHT22;58504;48.770;9.148;2022-12-20T12:16:08;21.90;48.80
62589;DHT22;58504;48.770;9.148;2022-12-20T12:18:37;22.00;49.00
62589;DHT22;58504;48.770;9.148;2022-12-20T12:21:08;21.90;48.90
62589;DHT22;58504;48.770;9.148;2022-12-20T12:23:46;21.90;48.90
62589;DHT22;58504;48.770;9.148;2022-12-20T12:26:19;22.00;48.90
62589;DHT22;58504;48.770;9.148;2022-12-20T12:28:50;22.00;48.90
62589;DHT22;58504;48.770;9.148;2022-12-20T12:31:24;22.00;48.90
62589;DHT22;58504;48.770;9.148;2022-12-20T12:34:05;22.00;48.90
62589;DHT22;58504;48.770;9.148;2022-12-20T12:39:48;22.00;48.70
62589;DHT22;58504;48.770;9.148;2022-12-20T12:45:16;22.00;48.60
62589;DHT22;58504;48.770;9.148;2022-12-20T12:47:49;22.00;48.70
62589;DHT22;58504;48.770;9.148;2022-12-20T12:50:21;22.00;48.70
62589;DHT22;58504;48.770;9.148;2022-12-20T12:52:51;22.00;48.50
62589;DHT22;58504;48.770;9.148;2022-12-20T12:55:43;22.00;48.70
62589;DHT22;58504;48.770;9.148;2022-12-20T12:58:30;22.10;48.70
62589;DHT22;58504;48.770;9.148;2022-12-20T13:00:59;22.10;48.70
62589;DHT22;58504;48.770;9.148;2022-12-20T13:03:44;22.00;48.60
62589;DHT22;58504;48.770;9.148;2022-12-20T13:09:48;22.10;48.70
62589;DHT22;58504;48.770;9.148;2022-12-20T13:12:55;22.10;48.70
62589;DHT22;58504;48.770;9.148;2022-12-20T13:15:49;22.10;48.70
62589;DHT22;58504;48.770;9.148;2022-12-20T13:18:16;22.20;48.60
62589;DHT22;58504;48.770;9.148;2022-12-20T13:21:26;22.20;48.70
62589;DHT22;58504;48.770;9.148;2022-12-20T13:27:29;22.30;48.30
62589;DHT22;58504;48.770;9.148;2022-12-20T13:33:02;22.40;48.40
62589;DHT22;58504;48.770;9.148;2022-12-20T13:35:55;22.50;48.60
62589;DHT22;58504;48.770;9.148;2022-12-20T13:41:33;22.60;48.00
62589;DHT22;58504;48.770;9.148;2022-12-20T13:44:09;22.50;48.00
62589;DHT22;58504;48.770;9.148;2022-12-20T13:46:46;22.50;48.20
62589;DHT22;58504;48.770;9.148;2022-12-20T13:49:20;22.50;48.40
62589;DHT22;58504;48.770;9.148;2022-12-20T13:51:48;22.50;48.60
62589;DHT22;58504;48.770;9.148;2022-12-20T13:54:17;22.60;48.50
62589;DHT22;58504;48.770;9.148;2022-12-20T13:56:46;22.70;48.30
62589;DHT22;58504;48.770;9.148;2022-12-20T13:59:23;22.70;48.10
62589;DHT22;58504;48.770;9.148;2022-12-20T14:01:52;22.80;48.20
62589;DHT22;58504;48.770;9.148;2022-12-20T14:04:21;22.80;48.00
62589;DHT22;58504;48.770;9.148;2022-12-20T14:06:52;22.90;48.50
62589;DHT22;58504;48.770;9.148;2022-12-20T14:09:27;22.90;48.00
62589;DHT22;58504;48.770;9.148;2022-12-20T14:12:02;22.90;48.00
62589;DHT22;58504;48.770;9.148;2022-12-20T14:14:30;22.90;47.90
62589;DHT22;58504;48.770;9.148;2022-12-20T14:20:02;23.00;48.00
62589;DHT22;58504;48.770;9.148;2022-12-20T14:22:29;23.10;48.00
62589;DHT22;58504;48.770;9.148;2022-12-20T14:24:56;23.10;48.00
62589;DHT22;58504;48.770;9.148;2022-12-20T14:27:26;23.10;47.90
62589;DHT22;58504;48.770;9.148;2022-12-20T14:29:55;23.10;47.90
62589;DHT22;58504;48.770;9.148;2022-12-20T14:32:22;23.10;47.90
62589;DHT22;58504;48.770;9.148;2022-12-20T14:34:50;23.10;47.80
62589;DHT22;58504;48.770;9.148;2022-12-20T14:37:27;23.20;47.90
62589;DHT22;58504;48.770;9.148;2022-12-20T14:39:57;23.20;47.80
62589;DHT22;58504;48.770;9.148;2022-12-20T14:42:31;23.20;47.90
62589;DHT22;58504;48.770;9.148;2022-12-20T14:45:03;23.20;48.00
62589;DHT22;58504;48.770;9.148;2022-12-20T14:47:30;23.00;40.00
62589;DHT22;58504;48.770;9.148;2022-12-20T14:50:00;22.30;37.90
62589;DHT22;58504;48.770;9.148;2022-12-20T14:52:32;21.30;38.10
62589;DHT22;58504;48.770;9.148;2022-12-20T14:55:03;20.50;39.10
62589;DHT22;58504;48.770;9.148;2022-12-20T14:57:43;19.60;40.00
62589;DHT22;58504;48.770;9.148;2022-12-20T15:00:14;18.70;41.50
62589;DHT22;58504;48.770;9.148;2022-12-20T15:02:49;18.30;43.80
62589;DHT22;58504;48.770;9.148;2022-12-20T15:05:44;18.30;45.70
62589;DHT22;58504;48.770;9.148;2022-12-20T15:08:13;18.60;47.50
62589;DHT22;58504;48.770;9.148;2022-12-20T15:10:41;19.00;48.70
62589;DHT22;58504;48.770;9.148;2022-12-20T15:13:12;19.30;48.90
62589;DHT22;58504;48.770;9.148;2022-12-20T15:15:40;19.60;48.90
62589;DHT22;58504;48.770;9.148;2022-12-20T15:18:11;19.90;48.90
62589;DHT22;58504;48.770;9.148;2022-12-20T15:20:39;20.20;48.80
62589;DHT22;58504;48.770;9.148;2022-12-20T15:23:12;20.40;48.70
62589;DHT22;58504;48.770;9.148;2022-12-20T15:25:40;20.60;48.50
62589;DHT22;58504;48.770;9.148;2022-12-20T15:28:18;20.80;48.50
62589;DHT22;58504;48.770;9.148;2022-12-20T15:30:46;20.90;48.30
62589;DHT22;58504;48.770;9.148;2022-12-20T15:33:18;21.10;48.10
62589;DHT22;58504;48.770;9.148;2022-12-20T15:35:46;21.20;47.90
62589;DHT22;58504;48.770;9.148;2022-12-20T15:38:16;21.30;47.70
62589;DHT22;58504;48.770;9.148;2022-12-20T15:40:44;21.40;47.60
62589;DHT22;58504;48.770;9.148;2022-12-20T15:43:13;21.60;47.70
62589;DHT22;58504;48.770;9.148;2022-12-20T15:45:42;21.70;47.60
62589;DHT22;58504;48.770;9.148;2022-12-20T15:48:13;21.70;47.40
62589;DHT22;58504;48.770;9.148;2022-12-20T15:50:42;21.80;47.20
62589;DHT22;58504;48.770;9.148;2022-12-20T15:53:13;21.90;47.10
62589;DHT22;58504;48.770;9.148;2022-12-20T15:55:41;21.90;47.20
62589;DHT22;58504;48.770;9.148;2022-12-20T15:58:08;22.00;47.10
62589;DHT22;58504;48.770;9.148;2022-12-20T16:00:38;22.00;46.80
62589;DHT22;58504;48.770;9.148;2022-12-20T16:03:14;22.00;47.00
62589;DHT22;58504;48.770;9.148;2022-12-20T16:05:41;22.00;47.00
62589;DHT22;58504;48.770;9.148;2022-12-20T16:08:08;22.10;47.00
62589;DHT22;58504;48.770;9.148;2022-12-20T16:10:35;22.10;46.90
62589;DHT22;58504;48.770;9.148;2022-12-20T16:13:04;22.10;47.00